createdAt,value
2023-01-31T00:01:32.990Z,2.82
2023-01-31T00:04:09.862Z,2.84
2023-01-31T00:06:51.744Z,2.85
2023-01-31T00:09:27.491Z,2.86
2023-01-31T00:12:04.649Z,2.86
2023-01-31T00:14:38.468Z,2.85
2023-01-31T00:17:13.487Z,2.86
2023-01-31T00:19:47.539Z,2.87
2023-01-31T00:22:21.912Z,2.88
2023-01-31T00:24:53.980Z,2.88
2023-01-31T00:27:26.282Z,2.87
2023-01-31T00:29:58.681Z,2.83
2023-01-31T00:32:30.298Z,2.80
2023-01-31T00:35:02.795Z,2.77
2023-01-31T00:37:38.223Z,2.75
2023-01-31T00:40:13.498Z,2.72
2023-01-31T00:42:46.535Z,2.68
2023-01-31T00:45:19.418Z,2.62
2023-01-31T00:47:50.934Z,2.63
2023-01-31T00:50:23.394Z,2.64
2023-01-31T00:52:59.714Z,2.64
2023-01-31T00:55:32.860Z,2.66
2023-01-31T00:58:09.261Z,2.70
2023-01-31T01:00:43.774Z,2.72
2023-01-31T01:03:18.520Z,2.74
2023-01-31T01:05:53.762Z,2.78
2023-01-31T01:08:29.059Z,2.80
2023-01-31T01:11:14.592Z,2.82
2023-01-31T01:13:50.298Z,2.85
2023-01-31T01:16:24.311Z,2.88
2023-01-31T01:19:03.843Z,2.87
2023-01-31T01:21:40.213Z,2.89
2023-01-31T01:24:16.637Z,2.91
2023-01-31T01:26:50.867Z,2.94
2023-01-31T01:29:25.015Z,2.95
2023-01-31T01:31:59.491Z,2.92
2023-01-31T01:34:34.631Z,2.92
2023-01-31T01:37:20.525Z,2.91
2023-01-31T01:39:53.156Z,2.88
2023-01-31T01:42:28.599Z,2.87
2023-01-31T01:45:02.479Z,2.84
2023-01-31T01:47:44.732Z,2.85
2023-01-31T01:50:24.685Z,2.84
2023-01-31T01:53:03.989Z,2.84
2023-01-31T01:56:29.292Z,2.85
2023-01-31T01:59:07.054Z,2.83
2023-01-31T02:01:39.948Z,2.81
2023-01-31T02:04:19.200Z,2.80
2023-01-31T02:06:54.803Z,2.79
2023-01-31T02:09:33.443Z,2.80
2023-01-31T02:12:06.100Z,2.79
2023-01-31T02:14:37.736Z,2.77
2023-01-31T02:17:14.881Z,2.75
2023-01-31T02:20:02.386Z,2.73
2023-01-31T02:22:38.719Z,2.71
2023-01-31T02:25:49.581Z,2.67
2023-01-31T02:28:53.248Z,2.63
2023-01-31T02:31:52.747Z,2.61
2023-01-31T02:34:38.601Z,2.58
2023-01-31T02:37:21.691Z,2.57
2023-01-31T02:40:04.145Z,2.55
2023-01-31T02:42:48.996Z,2.54
2023-01-31T02:45:27.811Z,2.54
2023-01-31T02:48:09.472Z,2.53
2023-01-31T02:50:51.002Z,2.53
2023-01-31T02:53:28.473Z,2.51
2023-01-31T02:56:19.146Z,2.50
2023-01-31T02:58:56.320Z,2.50
2023-01-31T03:01:32.329Z,2.51
2023-01-31T03:04:07.151Z,2.50
2023-01-31T03:07:03.737Z,2.49
2023-01-31T03:10:08.759Z,2.48
2023-01-31T03:13:09.488Z,2.47
2023-01-31T03:16:12.048Z,2.48
2023-01-31T03:18:52.233Z,2.46
2023-01-31T03:21:28.783Z,2.44
2023-01-31T03:24:00.502Z,2.44
2023-01-31T03:26:31.322Z,2.44
2023-01-31T03:29:05.616Z,2.43
2023-01-31T03:31:45.494Z,2.43
2023-01-31T03:34:20.813Z,2.44
2023-01-31T03:36:58.321Z,2.44
2023-01-31T03:39:43.993Z,2.42
2023-01-31T03:42:44.518Z,2.43
2023-01-31T03:45:24.344Z,2.44
2023-01-31T03:47:58.297Z,2.44
2023-01-31T03:50:34.706Z,2.44
2023-01-31T03:53:32.600Z,2.41
2023-01-31T03:56:17.321Z,2.40
2023-01-31T03:58:52.992Z,2.37
2023-01-31T04:01:30.950Z,2.37
2023-01-31T04:04:07.079Z,2.36
2023-01-31T04:06:38.456Z,2.36
2023-01-31T04:09:12.998Z,2.33
2023-01-31T04:11:48.431Z,2.34
2023-01-31T04:14:36.894Z,2.32
2023-01-31T04:17:07.968Z,2.31
2023-01-31T04:19:39.780Z,2.31
2023-01-31T04:22:10.628Z,2.29
2023-01-31T04:24:42.907Z,2.27
2023-01-31T04:27:14.230Z,2.26
2023-01-31T04:29:53.872Z,2.24
2023-01-31T04:32:26.451Z,2.22
2023-01-31T04:34:57.042Z,2.19
2023-01-31T04:37:28.113Z,2.17
2023-01-31T04:40:04.168Z,2.15
2023-01-31T04:42:35.633Z,2.13
2023-01-31T04:45:07.099Z,2.10
2023-01-31T04:47:58.712Z,2.10
2023-01-31T04:50:34.496Z,2.10
2023-01-31T04:53:05.178Z,2.09
2023-01-31T04:55:39.802Z,2.08
2023-01-31T04:58:11.054Z,2.04
2023-01-31T05:00:47.113Z,2.04
2023-01-31T05:03:38.330Z,2.00
2023-01-31T05:06:09.769Z,1.96
2023-01-31T05:08:40.837Z,1.92
2023-01-31T05:11:13.326Z,1.90
2023-01-31T05:13:52.106Z,1.87
2023-01-31T05:16:26.332Z,1.85
2023-01-31T05:18:58.166Z,1.82
2023-01-31T05:21:29.178Z,1.81
2023-01-31T05:24:02.265Z,1.80
2023-01-31T05:26:58.402Z,1.80
2023-01-31T05:29:32.482Z,1.79
2023-01-31T05:32:05.621Z,1.78
2023-01-31T05:34:39.481Z,1.79
2023-01-31T05:37:11.395Z,1.80
2023-01-31T05:40:08.060Z,1.80
2023-01-31T05:42:44.056Z,1.81
2023-01-31T05:45:23.312Z,1.81
2023-01-31T05:47:58.305Z,1.81
2023-01-31T05:50:50.132Z,1.80
2023-01-31T05:53:44.272Z,1.79
2023-01-31T05:56:19.118Z,1.77
2023-01-31T05:58:56.600Z,1.76
2023-01-31T06:01:33.977Z,1.76
2023-01-31T06:04:04.747Z,1.74
2023-01-31T06:06:35.645Z,1.72
2023-01-31T06:09:07.829Z,1.69
2023-01-31T06:11:43.647Z,1.67
2023-01-31T06:14:19.293Z,1.67
2023-01-31T06:16:52.572Z,1.66
2023-01-31T06:19:30.833Z,1.65
2023-01-31T06:22:02.936Z,1.65
2023-01-31T06:24:35.812Z,1.65
2023-01-31T06:27:10.891Z,1.66
2023-01-31T06:29:53.868Z,1.66
2023-01-31T06:32:24.734Z,1.64
2023-01-31T06:34:57.768Z,1.62
2023-01-31T06:37:29.566Z,1.61
2023-01-31T06:40:03.650Z,1.58
2023-01-31T06:42:36.234Z,1.57
2023-01-31T06:45:07.848Z,1.57
2023-01-31T06:47:40.157Z,1.55
2023-01-31T06:50:13.683Z,1.52
2023-01-31T06:52:44.161Z,1.52
2023-01-31T06:55:18.875Z,1.51
2023-01-31T06:58:00.189Z,1.49
2023-01-31T07:00:31.606Z,1.48
2023-01-31T07:03:02.387Z,1.45
2023-01-31T07:05:34.217Z,1.42
2023-01-31T07:08:05.723Z,1.40
2023-01-31T07:10:38.867Z,1.36
2023-01-31T07:13:11.606Z,1.33
2023-01-31T07:15:44.327Z,1.28
2023-01-31T07:18:14.876Z,1.24
2023-01-31T07:20:52.712Z,1.21
2023-01-31T07:23:24.192Z,1.16
2023-01-31T07:26:03.781Z,1.13
2023-01-31T07:28:39.784Z,1.10
2023-01-31T07:31:23.955Z,1.07
2023-01-31T07:34:01.003Z,1.06
2023-01-31T07:36:36.291Z,1.06
2023-01-31T07:39:10.968Z,1.08
2023-01-31T07:41:41.735Z,1.16
2023-01-31T07:44:14.471Z,1.23
2023-01-31T07:46:45.154Z,1.35
2023-01-31T07:49:19.835Z,1.45
2023-01-31T07:51:54.748Z,1.55
2023-01-31T07:54:25.759Z,1.64
2023-01-31T07:56:56.073Z,1.70
2023-01-31T07:59:26.899Z,1.75
2023-01-31T08:02:14.820Z,1.79
2023-01-31T08:04:45.346Z,1.89
2023-01-31T08:07:15.961Z,1.97
2023-01-31T08:09:49.789Z,2.03
2023-01-31T08:12:20.614Z,2.06
2023-01-31T08:14:52.088Z,2.10
2023-01-31T08:17:22.451Z,2.14
2023-01-31T08:19:53.025Z,2.17
2023-01-31T08:22:23.394Z,2.20
2023-01-31T08:24:53.758Z,2.26
2023-01-31T08:27:24.080Z,2.31
2023-01-31T08:29:54.929Z,2.33
2023-01-31T08:32:26.157Z,2.37
2023-01-31T08:34:57.021Z,2.40
2023-01-31T08:37:27.330Z,2.43
2023-01-31T08:39:57.874Z,2.47
2023-01-31T08:42:29.183Z,2.51
2023-01-31T08:44:59.732Z,2.56
2023-01-31T08:47:32.853Z,2.62
2023-01-31T08:50:03.273Z,2.66
2023-01-31T08:52:35.511Z,2.70
2023-01-31T08:55:09.292Z,2.68
2023-01-31T08:57:52.956Z,2.73
2023-01-31T09:00:29.397Z,2.80
2023-01-31T09:03:01.475Z,2.86
2023-01-31T09:05:33.519Z,2.90
2023-01-31T09:08:04.139Z,2.94
2023-01-31T09:10:36.167Z,3.00
2023-01-31T09:13:06.492Z,3.04
2023-01-31T09:15:37.505Z,3.04
2023-01-31T09:18:08.143Z,3.07
2023-01-31T09:20:39.012Z,3.09
2023-01-31T09:23:11.455Z,3.16
2023-01-31T09:25:47.480Z,3.25
2023-01-31T09:28:18.669Z,3.43
2023-01-31T09:30:49.516Z,3.52
2023-01-31T09:33:20.361Z,3.62
2023-01-31T09:35:59.796Z,3.72
2023-01-31T09:38:31.227Z,3.89
2023-01-31T09:41:07.285Z,3.99
2023-01-31T09:43:42.661Z,3.98
2023-01-31T09:46:20.111Z,3.93
2023-01-31T09:48:54.071Z,3.86
2023-01-31T09:51:25.368Z,3.83
2023-01-31T09:54:00.489Z,3.81
2023-01-31T09:56:38.382Z,3.73
2023-01-31T09:59:19.382Z,3.67
2023-01-31T10:01:59.053Z,3.66
2023-01-31T10:04:44.649Z,3.64
2023-01-31T10:07:21.948Z,3.66
2023-01-31T10:09:58.326Z,3.65
2023-01-31T10:12:35.276Z,3.63
2023-01-31T10:15:15.083Z,3.60
2023-01-31T10:17:48.542Z,3.56
2023-01-31T10:20:25.210Z,3.53
2023-01-31T10:23:04.698Z,3.52
2023-01-31T10:25:41.253Z,3.51
2023-01-31T10:28:18.973Z,3.59
2023-01-31T10:30:57.731Z,3.70
2023-01-31T10:33:37.176Z,3.75
2023-01-31T10:36:23.356Z,3.75
2023-01-31T10:39:03.280Z,3.73
2023-01-31T10:41:46.362Z,3.70
2023-01-31T10:44:24.895Z,3.71
2023-01-31T10:46:59.711Z,3.74
2023-01-31T10:49:31.682Z,3.77
2023-01-31T10:52:14.334Z,3.82
2023-01-31T10:54:55.639Z,3.89
2023-01-31T10:57:29.461Z,4.00
2023-01-31T11:00:00.143Z,4.08
2023-01-31T11:02:33.358Z,4.17
2023-01-31T11:05:04.217Z,4.25
2023-01-31T11:07:35.511Z,4.29
2023-01-31T11:10:25.192Z,4.28
2023-01-31T11:13:02.065Z,4.24
2023-01-31T11:15:39.156Z,4.20
2023-01-31T11:18:12.257Z,4.24
2023-01-31T11:20:48.857Z,4.33
2023-01-31T11:23:24.686Z,4.40
2023-01-31T11:25:56.836Z,4.43
2023-01-31T11:28:38.429Z,4.43
2023-01-31T11:31:19.920Z,4.47
2023-01-31T11:33:59.508Z,4.47
2023-01-31T11:36:42.091Z,4.43
2023-01-31T11:39:29.248Z,4.34
2023-01-31T11:42:06.793Z,4.25
2023-01-31T11:44:39.484Z,4.16
2023-01-31T11:47:14.813Z,4.12
2023-01-31T11:49:51.797Z,4.05
2023-01-31T11:52:29.173Z,4.00
2023-01-31T11:55:02.445Z,3.96
2023-01-31T11:57:36.090Z,3.92
2023-01-31T12:00:21.367Z,3.89
2023-01-31T12:03:01.183Z,3.85
2023-01-31T12:05:40.444Z,3.78
2023-01-31T12:08:30.733Z,3.73
2023-01-31T12:11:05.769Z,3.79
2023-01-31T12:13:49.159Z,3.82
2023-01-31T12:16:22.601Z,3.87
2023-01-31T12:19:09.203Z,3.93
2023-01-31T12:21:52.870Z,3.98
2023-01-31T12:24:37.327Z,4.01
2023-01-31T12:27:22.112Z,4.04
2023-01-31T12:30:22.556Z,4.03
2023-01-31T12:33:16.107Z,4.03
2023-01-31T12:36:02.403Z,4.05
2023-01-31T12:38:50.473Z,4.05
2023-01-31T12:41:31.056Z,4.02
2023-01-31T12:44:21.546Z,3.99
2023-01-31T12:47:11.658Z,3.98
2023-01-31T12:49:57.616Z,3.92
2023-01-31T12:52:35.643Z,3.87
2023-01-31T12:55:19.897Z,3.83
2023-01-31T12:58:04.586Z,3.78
2023-01-31T13:00:44.653Z,3.73
2023-01-31T13:03:34.881Z,3.69
2023-01-31T13:06:12.111Z,3.65
2023-01-31T13:09:07.243Z,3.61
2023-01-31T13:11:42.303Z,3.53
2023-01-31T13:14:20.032Z,3.48
2023-01-31T13:16:55.000Z,3.48
2023-01-31T13:19:39.964Z,3.49
2023-01-31T13:22:18.372Z,3.50
2023-01-31T13:24:53.021Z,3.51
2023-01-31T13:27:29.025Z,3.53
2023-01-31T13:30:03.820Z,3.53
2023-01-31T13:32:41.093Z,3.54
2023-01-31T13:35:23.234Z,3.55
2023-01-31T13:38:03.662Z,3.57
2023-01-31T13:40:39.418Z,3.57
2023-01-31T13:43:16.322Z,3.55
2023-01-31T13:45:52.747Z,3.54
2023-01-31T13:48:31.036Z,3.52
2023-01-31T13:51:11.423Z,3.51
2023-01-31T13:53:48.286Z,3.51
2023-01-31T13:56:26.428Z,3.51
2023-01-31T13:59:05.877Z,3.50
2023-01-31T14:01:47.238Z,3.48
2023-01-31T14:04:30.182Z,3.47
2023-01-31T14:07:24.373Z,3.46
2023-01-31T14:10:37.885Z,3.44
2023-01-31T14:13:29.321Z,3.43
2023-01-31T14:16:00.418Z,3.39
2023-01-31T14:18:45.919Z,3.37
2023-01-31T14:21:53.656Z,3.33
2023-01-31T14:25:04.713Z,3.28
2023-01-31T14:27:39.820Z,3.24
2023-01-31T14:30:27.403Z,3.22
2023-01-31T14:33:19.054Z,3.21
2023-01-31T14:36:19.708Z,3.18
2023-01-31T14:39:17.765Z,3.17
2023-01-31T14:42:17.887Z,3.14
2023-01-31T14:45:03.385Z,3.12
2023-01-31T14:47:49.360Z,3.12
2023-01-31T14:50:39.202Z,3.14
2023-01-31T14:53:27.000Z,3.15
2023-01-31T14:56:14.023Z,3.17
2023-01-31T14:58:48.141Z,3.20
2023-01-31T15:01:24.009Z,3.21
2023-01-31T15:03:58.962Z,3.21
2023-01-31T15:06:33.523Z,3.20
2023-01-31T15:09:38.589Z,3.20
2023-01-31T15:12:49.254Z,3.18
2023-01-31T15:15:27.540Z,3.17
2023-01-31T15:18:01.375Z,3.16
2023-01-31T15:20:41.754Z,3.16
2023-01-31T15:23:23.297Z,3.15
2023-01-31T15:25:55.548Z,3.14
2023-01-31T15:31:18.758Z,3.12
2023-01-31T15:33:54.478Z,3.13
2023-01-31T15:36:35.489Z,3.14
2023-01-31T15:39:19.527Z,3.14
2023-01-31T15:41:50.058Z,3.14
2023-01-31T15:44:22.745Z,3.13
2023-01-31T15:46:56.483Z,3.12
2023-01-31T15:49:39.550Z,3.11
2023-01-31T15:52:34.593Z,3.10
2023-01-31T15:55:08.140Z,3.10
2023-01-31T15:57:43.121Z,3.08
2023-01-31T16:00:21.464Z,3.06
2023-01-31T16:03:00.491Z,3.03
2023-01-31T16:05:34.254Z,2.96
2023-01-31T16:08:10.738Z,2.87
2023-01-31T16:11:04.874Z,2.78
2023-01-31T16:13:57.952Z,2.69
2023-01-31T16:16:30.545Z,2.64
2023-01-31T16:19:10.869Z,2.61
2023-01-31T16:22:02.415Z,2.58
2023-01-31T16:24:59.260Z,2.55
2023-01-31T16:27:52.681Z,2.53
2023-01-31T16:30:47.625Z,2.51
2023-01-31T16:33:26.903Z,2.50
2023-01-31T16:36:24.296Z,2.49
2023-01-31T16:39:33.839Z,2.48
2023-01-31T16:42:31.006Z,2.47
2023-01-31T16:45:33.663Z,2.45
2023-01-31T16:51:43.466Z,2.45
2023-01-31T16:54:24.993Z,2.45
2023-01-31T16:57:38.537Z,2.47
2023-01-31T17:00:36.234Z,2.47
2023-01-31T17:03:19.746Z,2.48
2023-01-31T17:05:50.137Z,2.49
2023-01-31T17:08:24.764Z,2.50
2023-01-31T17:10:55.209Z,2.51
2023-01-31T17:16:24.569Z,2.54
2023-01-31T17:18:58.169Z,2.57
2023-01-31T17:21:29.893Z,2.60
2023-01-31T17:24:04.406Z,2.63
2023-01-31T17:26:35.279Z,2.64
2023-01-31T17:29:05.638Z,2.67
2023-01-31T17:31:37.801Z,2.70
2023-01-31T17:34:52.602Z,2.74
2023-01-31T17:37:40.074Z,2.78
2023-01-31T17:40:14.187Z,2.80
2023-01-31T17:42:48.962Z,2.81
2023-01-31T17:50:07.834Z,2.90
2023-01-31T17:53:05.295Z,2.91
2023-01-31T17:55:44.161Z,2.91
2023-01-31T17:58:19.524Z,2.92
2023-01-31T18:01:06.619Z,2.92
2023-01-31T18:03:53.412Z,2.93
2023-01-31T18:06:41.008Z,2.94
2023-01-31T18:09:21.899Z,3.00
2023-01-31T18:12:23.015Z,3.03
2023-01-31T18:15:49.259Z,3.09
2023-01-31T18:18:40.717Z,3.13
2023-01-31T18:21:29.197Z,3.20
2023-01-31T18:24:13.971Z,3.25
2023-01-31T18:26:46.837Z,3.29
2023-01-31T18:29:19.874Z,3.31
2023-01-31T18:31:52.730Z,3.32
2023-01-31T18:34:23.752Z,3.33
2023-01-31T18:36:54.790Z,3.34
2023-01-31T18:39:26.765Z,3.35
2023-01-31T18:41:58.311Z,3.36
2023-01-31T18:49:19.933Z,3.39
2023-01-31T18:52:25.305Z,3.40
2023-01-31T18:55:09.911Z,3.42
2023-01-31T18:57:40.546Z,3.42
2023-01-31T19:00:14.398Z,3.44
2023-01-31T19:03:10.048Z,3.44
2023-01-31T19:05:40.791Z,3.44
2023-01-31T19:08:11.418Z,3.45
2023-01-31T19:10:43.811Z,3.46
2023-01-31T19:13:14.285Z,3.48
2023-01-31T19:15:50.278Z,3.48
2023-01-31T19:18:21.263Z,3.47
2023-01-31T19:20:51.717Z,3.47
2023-01-31T19:23:23.506Z,3.48
2023-01-31T19:25:54.694Z,3.48
2023-01-31T19:28:25.699Z,3.49
2023-01-31T19:30:58.274Z,3.50
2023-01-31T19:33:28.963Z,3.51
2023-01-31T19:36:00.119Z,3.53
2023-01-31T19:38:33.218Z,3.52
2023-01-31T19:41:17.146Z,3.54
2023-01-31T19:43:51.448Z,3.57
2023-01-31T19:46:27.664Z,3.58
2023-01-31T19:49:01.430Z,3.60
2023-01-31T19:51:33.756Z,3.63
2023-01-31T19:54:06.235Z,3.63
2023-01-31T19:56:38.551Z,3.65
2023-01-31T19:59:12.083Z,3.68
2023-01-31T20:01:42.806Z,3.69
2023-01-31T20:04:13.464Z,3.71
2023-01-31T20:06:49.519Z,3.71
2023-01-31T20:09:21.034Z,3.72
2023-01-31T20:11:54.878Z,3.72
2023-01-31T20:14:30.439Z,3.71
2023-01-31T20:17:06.552Z,3.68
2023-01-31T20:19:39.097Z,3.63
2023-01-31T20:22:09.791Z,3.60
2023-01-31T20:24:40.479Z,3.59
2023-01-31T20:27:11.469Z,3.58
2023-01-31T20:29:42.569Z,3.60
2023-01-31T20:32:13.586Z,3.61
2023-01-31T20:34:44.117Z,3.62
2023-01-31T20:37:15.467Z,3.62
2023-01-31T20:39:46.658Z,3.60
2023-01-31T20:42:17.994Z,3.60
2023-01-31T20:44:49.818Z,3.60
2023-01-31T20:47:20.556Z,3.61
2023-01-31T20:49:51.102Z,3.61
2023-01-31T20:52:26.682Z,3.62
2023-01-31T20:55:00.080Z,3.63
2023-01-31T20:57:31.803Z,3.64
2023-01-31T21:00:02.422Z,3.64
2023-01-31T21:02:33.015Z,3.66
2023-01-31T21:05:04.450Z,3.68
2023-01-31T21:07:35.312Z,3.69
2023-01-31T21:10:09.409Z,3.73
2023-01-31T21:12:40.247Z,3.75
2023-01-31T21:15:12.763Z,3.76
2023-01-31T21:17:43.243Z,3.76
2023-01-31T21:20:15.475Z,3.79
2023-01-31T21:22:46.220Z,3.81
2023-01-31T21:25:17.459Z,3.82
2023-01-31T21:27:49.419Z,3.83
2023-01-31T21:30:21.037Z,3.85
2023-01-31T21:32:52.744Z,3.86
2023-01-31T21:35:23.753Z,3.88
2023-01-31T21:37:59.203Z,3.90
2023-01-31T21:40:30.243Z,3.92
2023-01-31T21:43:02.131Z,3.93
2023-01-31T21:45:42.205Z,3.94
2023-01-31T21:48:32.651Z,3.96
2023-01-31T21:51:07.458Z,3.97
2023-01-31T21:53:40.187Z,3.99
2023-01-31T21:56:13.406Z,4.00
2023-01-31T21:58:44.932Z,4.04
2023-01-31T22:01:18.172Z,4.04
2023-01-31T22:03:51.308Z,4.04
2023-01-31T22:06:25.794Z,4.05
2023-01-31T22:09:04.181Z,4.05
2023-01-31T22:11:41.020Z,4.03
2023-01-31T22:14:14.715Z,4.02
2023-01-31T22:16:46.862Z,3.97
2023-01-31T22:19:22.338Z,3.94
2023-01-31T22:21:59.450Z,3.94
2023-01-31T22:24:31.089Z,3.92
2023-01-31T22:27:01.517Z,3.92
2023-01-31T22:29:32.064Z,3.93
2023-01-31T22:32:06.198Z,3.96
2023-01-31T22:34:36.756Z,3.96
2023-01-31T22:37:08.739Z,3.99
2023-01-31T22:39:39.665Z,4.02
2023-01-31T22:42:11.461Z,4.07
2023-01-31T22:44:42.142Z,4.13
2023-01-31T22:47:13.659Z,4.17
2023-01-31T22:49:45.105Z,4.18
2023-01-31T22:52:15.924Z,4.20
2023-01-31T22:54:46.384Z,4.25
2023-01-31T22:57:16.909Z,4.29
2023-01-31T22:59:47.463Z,4.32
2023-01-31T23:02:19.117Z,4.34
2023-01-31T23:04:53.286Z,3.85
2023-01-31T23:07:24.183Z,3.00
2023-01-31T23:09:55.730Z,2.42
2023-01-31T23:12:29.369Z,1.97
2023-01-31T23:15:02.413Z,1.65
2023-01-31T23:17:41.842Z,1.42
2023-01-31T23:20:16.509Z,1.27
2023-01-31T23:22:47.776Z,1.20
2023-01-31T23:25:19.093Z,1.17
2023-01-31T23:27:51.544Z,1.15
2023-01-31T23:30:22.818Z,1.11
2023-01-31T23:32:54.536Z,1.07
2023-01-31T23:35:35.985Z,1.03
2023-01-31T23:38:06.495Z,1.00
2023-01-31T23:40:39.686Z,0.98
2023-01-31T23:43:11.486Z,1.01
2023-01-31T23:45:45.889Z,1.03
2023-01-31T23:48:17.100Z,1.07
2023-01-31T23:50:47.627Z,1.11
2023-01-31T23:53:19.560Z,1.18
2023-01-31T23:55:53.872Z,1.21
2023-01-31T23:58:29.809Z,1.24
